sensor_id;sensor_type;location;lat;lon;timestamp;P1;durP1;ratioP1;P2;durP2;ratioP2
8568;SDS011;4322;51.104;-4.162;2022-09-03T00:02:33;4.33;;;4.13;;
8568;SDS011;4322;51.104;-4.162;2022-09-03T00:05:07;4.47;;;4.27;;
8568;SDS011;4322;51.104;-4.162;2022-09-03T00:07:46;5.10;;;4.90;;
8568;SDS011;4322;51.104;-4.162;2022-09-03T00:10:24;4.33;;;4.13;;
8568;SDS011;4322;51.104;-4.162;2022-09-03T00:12:57;4.33;;;4.13;;
8568;SDS011;4322;51.104;-4.162;2022-09-03T00:15:29;4.40;;;4.20;;
8568;SDS011;4322;51.104;-4.162;2022-09-03T00:18:02;4.70;;;4.50;;
8568;SDS011;4322;51.104;-4.162;2022-09-03T00:20:35;4.80;;;4.60;;
8568;SDS011;4322;51.104;-4.162;2022-09-03T00:23:09;4.33;;;4.13;;
8568;SDS011;4322;51.104;-4.162;2022-09-03T00:25:42;5.00;;;4.80;;
8568;SDS011;4322;51.104;-4.162;2022-09-03T00:28:15;4.50;;;4.30;;
8568;SDS011;4322;51.104;-4.162;2022-09-03T00:30:50;4.13;;;3.93;;
8568;SDS011;4322;51.104;-4.162;2022-09-03T00:33:32;4.73;;;4.53;;
8568;SDS011;4322;51.104;-4.162;2022-09-03T00:36:05;3.93;;;3.80;;
8568;SDS011;4322;51.104;-4.162;2022-09-03T00:38:41;3.73;;;3.63;;
8568;SDS011;4322;51.104;-4.162;2022-09-03T00:41:13;3.63;;;3.53;;
8568;SDS011;4322;51.104;-4.162;2022-09-03T00:43:54;4.67;;;4.47;;
8568;SDS011;4322;51.104;-4.162;2022-09-03T00:46:35;4.70;;;4.50;;
8568;SDS011;4322;51.104;-4.162;2022-09-03T00:49:13;4.50;;;4.30;;
8568;SDS011;4322;51.104;-4.162;2022-09-03T00:51:56;4.50;;;4.30;;
8568;SDS011;4322;51.104;-4.162;2022-09-03T00:54:33;4.30;;;4.10;;
8568;SDS011;4322;51.104;-4.162;2022-09-03T00:57:14;4.37;;;4.17;;
8568;SDS011;4322;51.104;-4.162;2022-09-03T00:59:53;4.27;;;4.07;;
8568;SDS011;4322;51.104;-4.162;2022-09-03T01:02:31;4.30;;;4.10;;
8568;SDS011;4322;51.104;-4.162;2022-09-03T01:05:16;4.43;;;4.23;;
8568;SDS011;4322;51.104;-4.162;2022-09-03T01:07:57;4.70;;;4.50;;
8568;SDS011;4322;51.104;-4.162;2022-09-03T01:10:34;4.77;;;4.57;;
8568;SDS011;4322;51.104;-4.162;2022-09-03T01:13:13;4.27;;;4.07;;
8568;SDS011;4322;51.104;-4.162;2022-09-03T01:15:49;4.33;;;4.13;;
8568;SDS011;4322;51.104;-4.162;2022-09-03T01:18:30;4.50;;;4.30;;
8568;SDS011;4322;51.104;-4.162;2022-09-03T01:21:10;3.73;;;3.63;;
8568;SDS011;4322;51.104;-4.162;2022-09-03T01:27:04;3.67;;;3.57;;
8568;SDS011;4322;51.104;-4.162;2022-09-03T01:29:47;3.80;;;3.70;;
8568;SDS011;4322;51.104;-4.162;2022-09-03T01:32:24;3.87;;;3.77;;
8568;SDS011;4322;51.104;-4.162;2022-09-03T01:34:59;3.70;;;3.60;;
8568;SDS011;4322;51.104;-4.162;2022-09-03T01:37:40;4.10;;;3.90;;
8568;SDS011;4322;51.104;-4.162;2022-09-03T01:40:21;3.63;;;3.53;;
8568;SDS011;4322;51.104;-4.162;2022-09-03T01:43:02;4.17;;;3.97;;
8568;SDS011;4322;51.104;-4.162;2022-09-03T01:45:48;3.87;;;3.77;;
8568;SDS011;4322;51.104;-4.162;2022-09-03T01:48:31;3.70;;;3.60;;
8568;SDS011;4322;51.104;-4.162;2022-09-03T01:51:10;3.60;;;3.50;;
8568;SDS011;4322;51.104;-4.162;2022-09-03T01:56:59;3.40;;;3.30;;
8568;SDS011;4322;51.104;-4.162;2022-09-03T02:00:03;3.87;;;3.77;;
8568;SDS011;4322;51.104;-4.162;2022-09-03T02:02:34;3.80;;;3.70;;
8568;SDS011;4322;51.104;-4.162;2022-09-03T02:05:05;3.67;;;3.57;;
8568;SDS011;4322;51.104;-4.162;2022-09-03T02:07:35;3.70;;;3.60;;
8568;SDS011;4322;51.104;-4.162;2022-09-03T02:10:06;3.90;;;3.80;;
8568;SDS011;4322;51.104;-4.162;2022-09-03T02:12:38;4.27;;;4.07;;
8568;SDS011;4322;51.104;-4.162;2022-09-03T02:15:09;4.10;;;3.90;;
8568;SDS011;4322;51.104;-4.162;2022-09-03T02:17:42;3.57;;;3.47;;
8568;SDS011;4322;51.104;-4.162;2022-09-03T02:20:14;3.63;;;3.53;;
8568;SDS011;4322;51.104;-4.162;2022-09-03T02:22:46;4.37;;;4.17;;
8568;SDS011;4322;51.104;-4.162;2022-09-03T02:25:15;3.70;;;3.60;;
8568;SDS011;4322;51.104;-4.162;2022-09-03T02:27:43;4.07;;;3.90;;
8568;SDS011;4322;51.104;-4.162;2022-09-03T02:30:12;4.20;;;4.00;;
8568;SDS011;4322;51.104;-4.162;2022-09-03T02:32:41;4.07;;;3.90;;
8568;SDS011;4322;51.104;-4.162;2022-09-03T02:35:10;3.97;;;3.83;;
8568;SDS011;4322;51.104;-4.162;2022-09-03T02:37:38;3.50;;;3.40;;
8568;SDS011;4322;51.104;-4.162;2022-09-03T02:40:07;4.20;;;4.00;;
8568;SDS011;4322;51.104;-4.162;2022-09-03T02:42:36;3.83;;;3.73;;
8568;SDS011;4322;51.104;-4.162;2022-09-03T02:45:06;4.37;;;4.17;;
8568;SDS011;4322;51.104;-4.162;2022-09-03T02:47:41;3.53;;;3.43;;
8568;SDS011;4322;51.104;-4.162;2022-09-03T02:50:14;4.40;;;4.20;;
8568;SDS011;4322;51.104;-4.162;2022-09-03T02:52:42;4.73;;;4.53;;
8568;SDS011;4322;51.104;-4.162;2022-09-03T02:55:10;4.13;;;3.93;;
8568;SDS011;4322;51.104;-4.162;2022-09-03T02:57:39;4.90;;;4.70;;
8568;SDS011;4322;51.104;-4.162;2022-09-03T03:00:08;3.77;;;3.67;;
8568;SDS011;4322;51.104;-4.162;2022-09-03T03:02:36;4.20;;;4.00;;
8568;SDS011;4322;51.104;-4.162;2022-09-03T03:05:06;4.30;;;4.10;;
8568;SDS011;4322;51.104;-4.162;2022-09-03T03:07:40;4.07;;;3.90;;
8568;SDS011;4322;51.104;-4.162;2022-09-03T03:10:08;4.40;;;4.20;;
8568;SDS011;4322;51.104;-4.162;2022-09-03T03:12:37;4.20;;;4.00;;
8568;SDS011;4322;51.104;-4.162;2022-09-03T03:15:06;4.80;;;4.60;;
8568;SDS011;4322;51.104;-4.162;2022-09-03T03:17:34;4.90;;;4.70;;
8568;SDS011;4322;51.104;-4.162;2022-09-03T03:20:02;4.57;;;4.37;;
8568;SDS011;4322;51.104;-4.162;2022-09-03T03:22:32;4.33;;;4.13;;
8568;SDS011;4322;51.104;-4.162;2022-09-03T03:25:00;4.50;;;4.30;;
8568;SDS011;4322;51.104;-4.162;2022-09-03T03:27:28;4.70;;;4.50;;
8568;SDS011;4322;51.104;-4.162;2022-09-03T03:29:56;4.30;;;4.10;;
8568;SDS011;4322;51.104;-4.162;2022-09-03T03:32:25;4.53;;;4.33;;
8568;SDS011;4322;51.104;-4.162;2022-09-03T03:34:53;3.73;;;3.63;;
8568;SDS011;4322;51.104;-4.162;2022-09-03T03:37:21;4.20;;;4.00;;
8568;SDS011;4322;51.104;-4.162;2022-09-03T03:39:50;3.70;;;3.60;;
8568;SDS011;4322;51.104;-4.162;2022-09-03T03:42:18;3.57;;;3.47;;
8568;SDS011;4322;51.104;-4.162;2022-09-03T03:44:46;4.40;;;4.20;;
8568;SDS011;4322;51.104;-4.162;2022-09-03T03:47:15;4.57;;;4.37;;
8568;SDS011;4322;51.104;-4.162;2022-09-03T03:49:43;4.60;;;4.40;;
8568;SDS011;4322;51.104;-4.162;2022-09-03T03:52:11;4.80;;;4.60;;
8568;SDS011;4322;51.104;-4.162;2022-09-03T03:54:39;3.77;;;3.67;;
8568;SDS011;4322;51.104;-4.162;2022-09-03T03:57:09;3.90;;;3.80;;
8568;SDS011;4322;51.104;-4.162;2022-09-03T03:59:40;4.30;;;4.10;;
8568;SDS011;4322;51.104;-4.162;2022-09-03T04:02:08;4.10;;;3.90;;
8568;SDS011;4322;51.104;-4.162;2022-09-03T04:04:36;4.37;;;4.17;;
8568;SDS011;4322;51.104;-4.162;2022-09-03T04:07:04;4.33;;;4.13;;
8568;SDS011;4322;51.104;-4.162;2022-09-03T04:09:32;3.90;;;3.80;;
8568;SDS011;4322;51.104;-4.162;2022-09-03T04:12:00;4.30;;;4.10;;
8568;SDS011;4322;51.104;-4.162;2022-09-03T04:14:30;3.83;;;3.73;;
8568;SDS011;4322;51.104;-4.162;2022-09-03T04:16:58;4.40;;;4.20;;
8568;SDS011;4322;51.104;-4.162;2022-09-03T04:19:27;4.40;;;4.20;;
8568;SDS011;4322;51.104;-4.162;2022-09-03T04:21:55;4.70;;;4.50;;
8568;SDS011;4322;51.104;-4.162;2022-09-03T04:24:23;4.23;;;4.03;;
8568;SDS011;4322;51.104;-4.162;2022-09-03T04:26:52;4.03;;;3.87;;
8568;SDS011;4322;51.104;-4.162;2022-09-03T04:29:20;4.27;;;4.07;;
8568;SDS011;4322;51.104;-4.162;2022-09-03T04:31:49;4.10;;;3.90;;
8568;SDS011;4322;51.104;-4.162;2022-09-03T04:34:35;3.73;;;3.63;;
8568;SDS011;4322;51.104;-4.162;2022-09-03T04:37:03;3.57;;;3.47;;
8568;SDS011;4322;51.104;-4.162;2022-09-03T04:39:31;3.80;;;3.70;;
8568;SDS011;4322;51.104;-4.162;2022-09-03T04:41:59;3.70;;;3.60;;
8568;SDS011;4322;51.104;-4.162;2022-09-03T04:44:27;3.60;;;3.50;;
8568;SDS011;4322;51.104;-4.162;2022-09-03T04:46:56;4.57;;;4.37;;
8568;SDS011;4322;51.104;-4.162;2022-09-03T04:49:24;4.10;;;3.90;;
8568;SDS011;4322;51.104;-4.162;2022-09-03T04:51:52;4.43;;;4.23;;
8568;SDS011;4322;51.104;-4.162;2022-09-03T04:54:20;4.40;;;4.20;;
8568;SDS011;4322;51.104;-4.162;2022-09-03T04:56:54;4.27;;;4.07;;
8568;SDS011;4322;51.104;-4.162;2022-09-03T04:59:22;3.67;;;3.57;;
8568;SDS011;4322;51.104;-4.162;2022-09-03T05:01:50;4.30;;;4.10;;
8568;SDS011;4322;51.104;-4.162;2022-09-03T05:04:20;4.47;;;4.27;;
8568;SDS011;4322;51.104;-4.162;2022-09-03T05:06:48;3.90;;;3.80;;
8568;SDS011;4322;51.104;-4.162;2022-09-03T05:09:16;4.23;;;4.03;;
8568;SDS011;4322;51.104;-4.162;2022-09-03T05:11:44;4.03;;;3.83;;
8568;SDS011;4322;51.104;-4.162;2022-09-03T05:14:12;3.57;;;3.47;;
8568;SDS011;4322;51.104;-4.162;2022-09-03T05:16:40;4.40;;;4.20;;
8568;SDS011;4322;51.104;-4.162;2022-09-03T05:19:19;3.67;;;3.57;;
8568;SDS011;4322;51.104;-4.162;2022-09-03T05:21:47;4.23;;;4.03;;
8568;SDS011;4322;51.104;-4.162;2022-09-03T05:24:15;4.10;;;3.90;;
8568;SDS011;4322;51.104;-4.162;2022-09-03T05:26:44;3.90;;;3.80;;
8568;SDS011;4322;51.104;-4.162;2022-09-03T05:29:12;4.03;;;3.87;;
8568;SDS011;4322;51.104;-4.162;2022-09-03T05:31:41;4.37;;;4.17;;
8568;SDS011;4322;51.104;-4.162;2022-09-03T05:34:09;3.93;;;3.80;;
8568;SDS011;4322;51.104;-4.162;2022-09-03T05:36:45;4.20;;;4.00;;
8568;SDS011;4322;51.104;-4.162;2022-09-03T05:39:15;4.47;;;4.27;;
8568;SDS011;4322;51.104;-4.162;2022-09-03T05:41:43;4.13;;;3.93;;
8568;SDS011;4322;51.104;-4.162;2022-09-03T05:44:11;4.37;;;4.17;;
8568;SDS011;4322;51.104;-4.162;2022-09-03T05:46:39;4.33;;;4.13;;
8568;SDS011;4322;51.104;-4.162;2022-09-03T05:49:07;3.37;;;3.27;;
8568;SDS011;4322;51.104;-4.162;2022-09-03T05:51:37;3.83;;;3.73;;
8568;SDS011;4322;51.104;-4.162;2022-09-03T05:54:07;4.30;;;4.10;;
8568;SDS011;4322;51.104;-4.162;2022-09-03T05:56:36;3.70;;;3.60;;
8568;SDS011;4322;51.104;-4.162;2022-09-03T05:59:06;4.20;;;4.00;;
8568;SDS011;4322;51.104;-4.162;2022-09-03T06:01:36;3.73;;;3.63;;
8568;SDS011;4322;51.104;-4.162;2022-09-03T06:04:05;3.73;;;3.63;;
8568;SDS011;4322;51.104;-4.162;2022-09-03T06:06:35;3.87;;;3.77;;
8568;SDS011;4322;51.104;-4.162;2022-09-03T06:09:05;4.40;;;4.20;;
8568;SDS011;4322;51.104;-4.162;2022-09-03T06:11:42;3.63;;;3.53;;
8568;SDS011;4322;51.104;-4.162;2022-09-03T06:14:11;3.73;;;3.63;;
8568;SDS011;4322;51.104;-4.162;2022-09-03T06:16:41;4.17;;;3.97;;
8568;SDS011;4322;51.104;-4.162;2022-09-03T06:19:12;3.80;;;3.70;;
8568;SDS011;4322;51.104;-4.162;2022-09-03T06:21:40;4.20;;;4.00;;
8568;SDS011;4322;51.104;-4.162;2022-09-03T06:24:12;4.50;;;4.30;;
8568;SDS011;4322;51.104;-4.162;2022-09-03T06:26:41;3.70;;;3.60;;
8568;SDS011;4322;51.104;-4.162;2022-09-03T06:29:10;3.50;;;3.40;;
8568;SDS011;4322;51.104;-4.162;2022-09-03T06:31:39;3.83;;;3.73;;
8568;SDS011;4322;51.104;-4.162;2022-09-03T06:34:07;4.67;;;4.47;;
8568;SDS011;4322;51.104;-4.162;2022-09-03T06:36:37;3.67;;;3.57;;
8568;SDS011;4322;51.104;-4.162;2022-09-03T06:39:06;4.00;;;3.87;;
8568;SDS011;4322;51.104;-4.162;2022-09-03T06:41:36;4.30;;;4.10;;
8568;SDS011;4322;51.104;-4.162;2022-09-03T06:44:06;3.97;;;3.87;;
8568;SDS011;4322;51.104;-4.162;2022-09-03T06:46:38;3.60;;;3.50;;
8568;SDS011;4322;51.104;-4.162;2022-09-03T06:49:08;3.90;;;3.80;;
8568;SDS011;4322;51.104;-4.162;2022-09-03T06:51:36;3.90;;;3.80;;
8568;SDS011;4322;51.104;-4.162;2022-09-03T06:54:06;3.60;;;3.50;;
8568;SDS011;4322;51.104;-4.162;2022-09-03T06:56:38;3.73;;;3.63;;
8568;SDS011;4322;51.104;-4.162;2022-09-03T06:59:07;3.30;;;3.20;;
8568;SDS011;4322;51.104;-4.162;2022-09-03T07:01:37;3.93;;;3.80;;
8568;SDS011;4322;51.104;-4.162;2022-09-03T07:04:10;3.53;;;3.43;;
8568;SDS011;4322;51.104;-4.162;2022-09-03T07:06:39;2.80;;;2.70;;
8568;SDS011;4322;51.104;-4.162;2022-09-03T07:09:10;3.30;;;3.20;;
8568;SDS011;4322;51.104;-4.162;2022-09-03T07:11:40;3.40;;;3.30;;
8568;SDS011;4322;51.104;-4.162;2022-09-03T07:14:14;3.50;;;3.40;;
8568;SDS011;4322;51.104;-4.162;2022-09-03T07:16:43;3.33;;;3.23;;
8568;SDS011;4322;51.104;-4.162;2022-09-03T07:19:11;3.90;;;3.80;;
8568;SDS011;4322;51.104;-4.162;2022-09-03T07:21:40;3.53;;;3.43;;
8568;SDS011;4322;51.104;-4.162;2022-09-03T07:24:14;3.60;;;3.50;;
8568;SDS011;4322;51.104;-4.162;2022-09-03T07:26:45;3.70;;;3.60;;
8568;SDS011;4322;51.104;-4.162;2022-09-03T07:29:14;3.83;;;3.73;;
8568;SDS011;4322;51.104;-4.162;2022-09-03T07:31:47;3.57;;;3.47;;
8568;SDS011;4322;51.104;-4.162;2022-09-03T07:34:18;4.13;;;3.93;;
8568;SDS011;4322;51.104;-4.162;2022-09-03T07:36:51;3.60;;;3.50;;
8568;SDS011;4322;51.104;-4.162;2022-09-03T07:39:19;4.13;;;3.93;;
8568;SDS011;4322;51.104;-4.162;2022-09-03T07:41:49;4.10;;;3.90;;
8568;SDS011;4322;51.104;-4.162;2022-09-03T07:44:17;4.20;;;4.00;;
8568;SDS011;4322;51.104;-4.162;2022-09-03T07:46:46;4.10;;;3.90;;
8568;SDS011;4322;51.104;-4.162;2022-09-03T07:49:17;3.77;;;3.67;;
8568;SDS011;4322;51.104;-4.162;2022-09-03T07:51:47;3.80;;;3.70;;
8568;SDS011;4322;51.104;-4.162;2022-09-03T07:54:18;3.23;;;3.13;;
8568;SDS011;4322;51.104;-4.162;2022-09-03T07:56:48;4.40;;;4.20;;
8568;SDS011;4322;51.104;-4.162;2022-09-03T07:59:16;4.13;;;3.93;;
8568;SDS011;4322;51.104;-4.162;2022-09-03T08:01:45;3.80;;;3.70;;
8568;SDS011;4322;51.104;-4.162;2022-09-03T08:04:13;4.03;;;3.87;;
8568;SDS011;4322;51.104;-4.162;2022-09-03T08:06:41;3.33;;;3.23;;
8568;SDS011;4322;51.104;-4.162;2022-09-03T08:09:10;3.70;;;3.60;;
8568;SDS011;4322;51.104;-4.162;2022-09-03T08:11:40;2.90;;;2.80;;
8568;SDS011;4322;51.104;-4.162;2022-09-03T08:14:13;3.30;;;3.20;;
8568;SDS011;4322;51.104;-4.162;2022-09-03T08:16:42;3.10;;;3.00;;
8568;SDS011;4322;51.104;-4.162;2022-09-03T08:19:12;3.20;;;3.10;;
8568;SDS011;4322;51.104;-4.162;2022-09-03T08:21:41;3.03;;;2.93;;
8568;SDS011;4322;51.104;-4.162;2022-09-03T08:24:09;3.40;;;3.30;;
8568;SDS011;4322;51.104;-4.162;2022-09-03T08:26:39;2.80;;;2.70;;
8568;SDS011;4322;51.104;-4.162;2022-09-03T08:29:17;3.77;;;3.67;;
8568;SDS011;4322;51.104;-4.162;2022-09-03T08:31:46;3.67;;;3.57;;
8568;SDS011;4322;51.104;-4.162;2022-09-03T08:34:15;3.60;;;3.50;;
8568;SDS011;4322;51.104;-4.162;2022-09-03T08:36:43;3.50;;;3.40;;
8568;SDS011;4322;51.104;-4.162;2022-09-03T08:39:12;3.43;;;3.33;;
8568;SDS011;4322;51.104;-4.162;2022-09-03T08:44:43;3.37;;;3.27;;
8568;SDS011;4322;51.104;-4.162;2022-09-03T08:47:15;3.40;;;3.30;;
8568;SDS011;4322;51.104;-4.162;2022-09-03T08:49:49;3.03;;;2.93;;
8568;SDS011;4322;51.104;-4.162;2022-09-03T08:52:27;3.40;;;3.30;;
8568;SDS011;4322;51.104;-4.162;2022-09-03T08:55:00;3.50;;;3.40;;
8568;SDS011;4322;51.104;-4.162;2022-09-03T08:57:39;3.10;;;3.00;;
8568;SDS011;4322;51.104;-4.162;2022-09-03T09:00:12;3.20;;;3.10;;
8568;SDS011;4322;51.104;-4.162;2022-09-03T09:02:43;3.20;;;3.10;;
8568;SDS011;4322;51.104;-4.162;2022-09-03T09:05:22;3.17;;;3.07;;
8568;SDS011;4322;51.104;-4.162;2022-09-03T09:07:59;3.30;;;3.20;;
8568;SDS011;4322;51.104;-4.162;2022-09-03T09:10:36;3.30;;;3.20;;
8568;SDS011;4322;51.104;-4.162;2022-09-03T09:13:22;3.00;;;2.90;;
8568;SDS011;4322;51.104;-4.162;2022-09-03T09:15:59;3.50;;;3.40;;
8568;SDS011;4322;51.104;-4.162;2022-09-03T09:18:37;3.13;;;3.03;;
8568;SDS011;4322;51.104;-4.162;2022-09-03T09:21:17;3.10;;;3.00;;
8568;SDS011;4322;51.104;-4.162;2022-09-03T09:23:53;3.63;;;3.53;;
8568;SDS011;4322;51.104;-4.162;2022-09-03T09:26:24;3.60;;;3.50;;
8568;SDS011;4322;51.104;-4.162;2022-09-03T09:28:54;3.00;;;2.90;;
8568;SDS011;4322;51.104;-4.162;2022-09-03T09:31:28;3.10;;;3.00;;
8568;SDS011;4322;51.104;-4.162;2022-09-03T09:33:59;2.77;;;2.67;;
8568;SDS011;4322;51.104;-4.162;2022-09-03T09:36:41;3.30;;;3.20;;
8568;SDS011;4322;51.104;-4.162;2022-09-03T09:39:14;3.10;;;3.00;;
8568;SDS011;4322;51.104;-4.162;2022-09-03T09:41:42;3.50;;;3.40;;
8568;SDS011;4322;51.104;-4.162;2022-09-03T09:44:24;3.30;;;3.20;;
8568;SDS011;4322;51.104;-4.162;2022-09-03T09:47:02;3.60;;;3.50;;
8568;SDS011;4322;51.104;-4.162;2022-09-03T09:49:34;3.20;;;3.10;;
8568;SDS011;4322;51.104;-4.162;2022-09-03T09:52:06;3.50;;;3.40;;
8568;SDS011;4322;51.104;-4.162;2022-09-03T09:54:37;3.50;;;3.40;;
8568;SDS011;4322;51.104;-4.162;2022-09-03T09:57:06;3.60;;;3.50;;
8568;SDS011;4322;51.104;-4.162;2022-09-03T09:59:43;3.63;;;3.53;;
8568;SDS011;4322;51.104;-4.162;2022-09-03T10:02:17;3.30;;;3.20;;
8568;SDS011;4322;51.104;-4.162;2022-09-03T10:05:00;3.30;;;3.20;;
8568;SDS011;4322;51.104;-4.162;2022-09-03T10:07:40;3.57;;;3.47;;
8568;SDS011;4322;51.104;-4.162;2022-09-03T10:10:13;3.10;;;3.00;;
8568;SDS011;4322;51.104;-4.162;2022-09-03T10:12:45;3.40;;;3.30;;
8568;SDS011;4322;51.104;-4.162;2022-09-03T10:15:20;3.50;;;3.40;;
8568;SDS011;4322;51.104;-4.162;2022-09-03T10:17:56;3.33;;;3.23;;
8568;SDS011;4322;51.104;-4.162;2022-09-03T10:20:32;3.03;;;2.93;;
8568;SDS011;4322;51.104;-4.162;2022-09-03T10:23:10;2.87;;;2.77;;
8568;SDS011;4322;51.104;-4.162;2022-09-03T10:25:49;2.90;;;2.80;;
8568;SDS011;4322;51.104;-4.162;2022-09-03T10:28:29;3.07;;;2.97;;
8568;SDS011;4322;51.104;-4.162;2022-09-03T10:31:16;2.97;;;2.87;;
8568;SDS011;4322;51.104;-4.162;2022-09-03T10:33:59;2.50;;;2.40;;
8568;SDS011;4322;51.104;-4.162;2022-09-03T10:36:33;2.57;;;2.47;;
8568;SDS011;4322;51.104;-4.162;2022-09-03T10:39:08;2.33;;;2.23;;
8568;SDS011;4322;51.104;-4.162;2022-09-03T10:41:47;1.90;;;1.90;;
8568;SDS011;4322;51.104;-4.162;2022-09-03T10:44:33;1.80;;;1.80;;
8568;SDS011;4322;51.104;-4.162;2022-09-03T10:47:17;1.70;;;1.70;;
8568;SDS011;4322;51.104;-4.162;2022-09-03T10:50:08;1.70;;;1.70;;
8568;SDS011;4322;51.104;-4.162;2022-09-03T10:52:46;1.50;;;1.50;;
8568;SDS011;4322;51.104;-4.162;2022-09-03T10:55:34;1.80;;;1.80;;
8568;SDS011;4322;51.104;-4.162;2022-09-03T10:58:18;1.63;;;1.63;;
8568;SDS011;4322;51.104;-4.162;2022-09-03T11:01:04;1.50;;;1.50;;
8568;SDS011;4322;51.104;-4.162;2022-09-03T11:03:44;1.80;;;1.80;;
8568;SDS011;4322;51.104;-4.162;2022-09-03T11:06:19;1.63;;;1.63;;
8568;SDS011;4322;51.104;-4.162;2022-09-03T11:08:52;1.90;;;1.90;;
8568;SDS011;4322;51.104;-4.162;2022-09-03T11:11:32;1.90;;;1.90;;
8568;SDS011;4322;51.104;-4.162;2022-09-03T11:14:06;1.90;;;1.90;;
8568;SDS011;4322;51.104;-4.162;2022-09-03T11:16:37;1.60;;;1.60;;
8568;SDS011;4322;51.104;-4.162;2022-09-03T11:19:11;1.40;;;1.40;;
8568;SDS011;4322;51.104;-4.162;2022-09-03T11:21:45;1.70;;;1.70;;
8568;SDS011;4322;51.104;-4.162;2022-09-03T11:24:16;1.80;;;1.80;;
8568;SDS011;4322;51.104;-4.162;2022-09-03T11:26:49;1.43;;;1.43;;
8568;SDS011;4322;51.104;-4.162;2022-09-03T11:29:25;1.40;;;1.40;;
8568;SDS011;4322;51.104;-4.162;2022-09-03T11:32:03;1.20;;;1.20;;
8568;SDS011;4322;51.104;-4.162;2022-09-03T11:34:44;1.43;;;1.43;;
8568;SDS011;4322;51.104;-4.162;2022-09-03T11:37:19;1.33;;;1.33;;
8568;SDS011;4322;51.104;-4.162;2022-09-03T11:39:52;1.50;;;1.50;;
8568;SDS011;4322;51.104;-4.162;2022-09-03T11:42:27;1.57;;;1.57;;
8568;SDS011;4322;51.104;-4.162;2022-09-03T11:45:13;1.40;;;1.40;;
8568;SDS011;4322;51.104;-4.162;2022-09-03T11:47:48;1.33;;;1.33;;
8568;SDS011;4322;51.104;-4.162;2022-09-03T11:50:21;1.40;;;1.40;;
8568;SDS011;4322;51.104;-4.162;2022-09-03T11:52:54;1.50;;;1.50;;
8568;SDS011;4322;51.104;-4.162;2022-09-03T11:55:46;1.30;;;1.30;;
8568;SDS011;4322;51.104;-4.162;2022-09-03T11:58:22;1.30;;;1.30;;
8568;SDS011;4322;51.104;-4.162;2022-09-03T12:00:52;1.33;;;1.33;;
8568;SDS011;4322;51.104;-4.162;2022-09-03T12:03:22;1.20;;;1.20;;
8568;SDS011;4322;51.104;-4.162;2022-09-03T12:06:01;1.30;;;1.30;;
8568;SDS011;4322;51.104;-4.162;2022-09-03T12:08:56;1.20;;;1.20;;
8568;SDS011;4322;51.104;-4.162;2022-09-03T12:11:39;1.27;;;1.27;;
8568;SDS011;4322;51.104;-4.162;2022-09-03T12:14:18;1.13;;;1.13;;
8568;SDS011;4322;51.104;-4.162;2022-09-03T12:19:44;1.13;;;1.13;;
8568;SDS011;4322;51.104;-4.162;2022-09-03T12:22:18;1.10;;;1.10;;
8568;SDS011;4322;51.104;-4.162;2022-09-03T12:24:50;1.10;;;1.10;;
8568;SDS011;4322;51.104;-4.162;2022-09-03T12:27:19;1.10;;;1.10;;
8568;SDS011;4322;51.104;-4.162;2022-09-03T12:29:51;1.23;;;1.23;;
8568;SDS011;4322;51.104;-4.162;2022-09-03T12:32:23;1.10;;;1.10;;
8568;SDS011;4322;51.104;-4.162;2022-09-03T12:34:52;1.20;;;1.20;;
8568;SDS011;4322;51.104;-4.162;2022-09-03T12:37:21;1.40;;;1.40;;
8568;SDS011;4322;51.104;-4.162;2022-09-03T12:40:19;1.40;;;1.40;;
8568;SDS011;4322;51.104;-4.162;2022-09-03T12:42:51;1.50;;;1.50;;
8568;SDS011;4322;51.104;-4.162;2022-09-03T12:45:41;1.40;;;1.40;;
8568;SDS011;4322;51.104;-4.162;2022-09-03T12:48:31;1.30;;;1.30;;
8568;SDS011;4322;51.104;-4.162;2022-09-03T12:51:00;1.43;;;1.43;;
8568;SDS011;4322;51.104;-4.162;2022-09-03T12:53:49;1.50;;;1.50;;
8568;SDS011;4322;51.104;-4.162;2022-09-03T12:56:21;1.67;;;1.67;;
8568;SDS011;4322;51.104;-4.162;2022-09-03T12:58:52;1.70;;;1.70;;
8568;SDS011;4322;51.104;-4.162;2022-09-03T13:01:25;1.50;;;1.50;;
8568;SDS011;4322;51.104;-4.162;2022-09-03T13:03:58;1.40;;;1.40;;
8568;SDS011;4322;51.104;-4.162;2022-09-03T13:06:40;1.40;;;1.40;;
8568;SDS011;4322;51.104;-4.162;2022-09-03T13:09:15;1.50;;;1.50;;
8568;SDS011;4322;51.104;-4.162;2022-09-03T13:11:49;1.20;;;1.20;;
8568;SDS011;4322;51.104;-4.162;2022-09-03T13:14:20;1.10;;;1.10;;
8568;SDS011;4322;51.104;-4.162;2022-09-03T13:16:52;1.10;;;1.10;;
8568;SDS011;4322;51.104;-4.162;2022-09-03T13:19:32;1.20;;;1.20;;
8568;SDS011;4322;51.104;-4.162;2022-09-03T13:22:10;1.10;;;1.10;;
8568;SDS011;4322;51.104;-4.162;2022-09-03T13:24:49;1.30;;;1.30;;
8568;SDS011;4322;51.104;-4.162;2022-09-03T13:27:30;1.10;;;1.10;;
8568;SDS011;4322;51.104;-4.162;2022-09-03T13:30:06;1.03;;;1.03;;
8568;SDS011;4322;51.104;-4.162;2022-09-03T13:32:42;1.10;;;1.10;;
8568;SDS011;4322;51.104;-4.162;2022-09-03T13:35:21;1.30;;;1.30;;
8568;SDS011;4322;51.104;-4.162;2022-09-03T13:37:55;1.20;;;1.20;;
8568;SDS011;4322;51.104;-4.162;2022-09-03T13:40:33;1.20;;;1.20;;
8568;SDS011;4322;51.104;-4.162;2022-09-03T13:43:08;1.30;;;1.30;;
8568;SDS011;4322;51.104;-4.162;2022-09-03T13:45:50;1.20;;;1.20;;
8568;SDS011;4322;51.104;-4.162;2022-09-03T13:48:24;1.03;;;1.03;;
8568;SDS011;4322;51.104;-4.162;2022-09-03T13:51:16;1.00;;;1.00;;
8568;SDS011;4322;51.104;-4.162;2022-09-03T13:53:52;1.00;;;1.00;;
8568;SDS011;4322;51.104;-4.162;2022-09-03T13:56:43;1.20;;;1.20;;
8568;SDS011;4322;51.104;-4.162;2022-09-03T13:59:24;1.00;;;1.00;;
8568;SDS011;4322;51.104;-4.162;2022-09-03T14:02:05;1.20;;;1.20;;
8568;SDS011;4322;51.104;-4.162;2022-09-03T14:04:43;1.30;;;1.30;;
8568;SDS011;4322;51.104;-4.162;2022-09-03T14:07:23;1.33;;;1.33;;
8568;SDS011;4322;51.104;-4.162;2022-09-03T14:09:57;1.40;;;1.40;;
8568;SDS011;4322;51.104;-4.162;2022-09-03T14:12:37;1.50;;;1.50;;
8568;SDS011;4322;51.104;-4.162;2022-09-03T14:15:16;1.30;;;1.30;;
8568;SDS011;4322;51.104;-4.162;2022-09-03T14:17:49;1.50;;;1.50;;
8568;SDS011;4322;51.104;-4.162;2022-09-03T14:20:23;1.30;;;1.30;;
8568;SDS011;4322;51.104;-4.162;2022-09-03T14:22:55;1.30;;;1.30;;
8568;SDS011;4322;51.104;-4.162;2022-09-03T14:25:29;1.20;;;1.20;;
8568;SDS011;4322;51.104;-4.162;2022-09-03T14:28:12;1.40;;;1.40;;
8568;SDS011;4322;51.104;-4.162;2022-09-03T14:30:45;1.40;;;1.40;;
8568;SDS011;4322;51.104;-4.162;2022-09-03T14:33:22;1.40;;;1.40;;
8568;SDS011;4322;51.104;-4.162;2022-09-03T14:35:58;1.40;;;1.40;;
8568;SDS011;4322;51.104;-4.162;2022-09-03T14:38:37;1.30;;;1.30;;
8568;SDS011;4322;51.104;-4.162;2022-09-03T14:44:37;1.10;;;1.10;;
8568;SDS011;4322;51.104;-4.162;2022-09-03T14:47:32;1.30;;;1.30;;
8568;SDS011;4322;51.104;-4.162;2022-09-03T14:50:15;1.20;;;1.20;;
8568;SDS011;4322;51.104;-4.162;2022-09-03T14:53:07;1.00;;;1.00;;
8568;SDS011;4322;51.104;-4.162;2022-09-03T14:56:01;1.00;;;1.00;;
8568;SDS011;4322;51.104;-4.162;2022-09-03T14:58:42;0.87;;;0.87;;
8568;SDS011;4322;51.104;-4.162;2022-09-03T15:01:25;1.00;;;1.00;;
8568;SDS011;4322;51.104;-4.162;2022-09-03T15:04:26;0.90;;;0.90;;
8568;SDS011;4322;51.104;-4.162;2022-09-03T15:07:14;0.80;;;0.80;;
8568;SDS011;4322;51.104;-4.162;2022-09-03T15:09:53;0.87;;;0.87;;
8568;SDS011;4322;51.104;-4.162;2022-09-03T15:12:31;0.80;;;0.80;;
8568;SDS011;4322;51.104;-4.162;2022-09-03T15:15:04;1.10;;;1.10;;
8568;SDS011;4322;51.104;-4.162;2022-09-03T15:17:42;0.87;;;0.87;;
8568;SDS011;4322;51.104;-4.162;2022-09-03T15:20:18;0.83;;;0.83;;
8568;SDS011;4322;51.104;-4.162;2022-09-03T15:23:06;0.90;;;0.90;;
8568;SDS011;4322;51.104;-4.162;2022-09-03T15:25:42;0.90;;;0.90;;
8568;SDS011;4322;51.104;-4.162;2022-09-03T15:28:24;0.90;;;0.90;;
8568;SDS011;4322;51.104;-4.162;2022-09-03T15:31:01;0.93;;;0.93;;
8568;SDS011;4322;51.104;-4.162;2022-09-03T15:33:43;1.00;;;1.00;;
8568;SDS011;4322;51.104;-4.162;2022-09-03T15:36:23;1.00;;;1.00;;
8568;SDS011;4322;51.104;-4.162;2022-09-03T15:38:54;1.00;;;1.00;;
8568;SDS011;4322;51.104;-4.162;2022-09-03T15:41:34;1.10;;;1.10;;
8568;SDS011;4322;51.104;-4.162;2022-09-03T15:44:11;1.20;;;1.20;;
8568;SDS011;4322;51.104;-4.162;2022-09-03T15:46:52;1.10;;;1.10;;
8568;SDS011;4322;51.104;-4.162;2022-09-03T15:49:30;0.97;;;0.97;;
8568;SDS011;4322;51.104;-4.162;2022-09-03T15:52:19;1.20;;;1.20;;
8568;SDS011;4322;51.104;-4.162;2022-09-03T15:54:58;0.90;;;0.90;;
8568;SDS011;4322;51.104;-4.162;2022-09-03T15:57:34;0.80;;;0.80;;
8568;SDS011;4322;51.104;-4.162;2022-09-03T16:00:09;1.00;;;1.00;;